Time;durP1;ratioP1;P1;durP2;ratioP2;P2;SDS_P1;SDS_P2;PMS_P1;PMS_P2;Temp;Humidity;BMP_temperature;BMP_pressure;BME280_temperature;BME280_humidity;BME280_pressure;Samples;Min_cycle;Max_cycle;Signal;HPM_P1;HPM_P2
2023/04/08 00:02:20;;;;;;;30.40;16.53;;;;;;;;;;5050319;28;21448;-59
2023/04/08 00:04:46;;;;;;;37.03;18.70;;;;;;;;;;5049907;28;20527;-59
2023/04/08 00:07:12;;;;;;;30.27;17.63;;;;;;;;;;5048697;28;20291;-59
2023/04/08 00:09:38;;;;;;;33.53;17.57;;;;;;;;;;5050114;28;20423;-59
2023/04/08 00:12:04;;;;;;;31.20;17.27;;;;;;;;;;5049984;28;20283;-59
2023/04/08 00:14:30;;;;;;;35.23;17.33;;;;;;;;;;5049741;28;20124;-59
2023/04/08 00:16:56;;;;;;;32.13;18.13;;;;;;;;;;5049898;28;20413;-59
2023/04/08 00:19:24;;;;;;;36.83;17.70;;;;;;;;;;5050190;28;20371;-59
2023/04/08 00:21:50;;;;;;;39.17;17.10;;;;;;;;;;5049135;28;20801;-59
2023/04/08 00:24:16;;;;;;;32.00;16.13;;;;;;;;;;5049810;28;20056;-59
2023/04/08 00:26:42;;;;;;;27.53;14.90;;;;;;;;;;5049953;28;20781;-59
2023/04/08 00:29:08;;;;;;;31.57;15.90;;;;;;;;;;5049075;28;20061;-59
2023/04/08 00:31:34;;;;;;;30.33;17.00;;;;;;;;;;5049482;28;20056;-59
2023/04/08 00:34:00;;;;;;;32.10;15.80;;;;;;;;;;5049486;28;20646;-59
2023/04/08 00:36:26;;;;;;;31.53;15.87;;;;;;;;;;5049305;28;20041;-59
2023/04/08 00:38:52;;;;;;;35.37;16.30;;;;;;;;;;5049155;28;20049;-59
2023/04/08 00:41:18;;;;;;;33.40;16.87;;;;;;;;;;5049228;28;20291;-59
2023/04/08 00:43:44;;;;;;;29.30;16.63;;;;;;;;;;5049496;28;20642;-59
2023/04/08 00:46:10;;;;;;;36.47;17.20;;;;;;;;;;5048872;28;20048;-59
2023/04/08 00:48:36;;;;;;;30.27;16.33;;;;;;;;;;5049408;28;20345;-59
2023/04/08 00:51:02;;;;;;;34.33;16.30;;;;;;;;;;5049256;28;20052;-59
2023/04/08 00:53:30;;;;;;;28.57;15.80;;;;;;;;;;5048734;28;20646;-59
2023/04/08 00:55:56;;;;;;;33.87;15.50;;;;;;;;;;5049241;28;20087;-59
2023/04/08 00:58:23;;;;;;;33.47;16.47;;;;;;;;;;5049237;28;20294;-59
2023/04/08 01:01:10;;;;;;;27.53;15.37;;;;;;;;;;5049251;28;20341;-59
2023/04/08 01:03:57;;;;;;;32.67;16.63;;;;;;;;;;5049463;28;20303;-59
2023/04/08 01:06:30;;;;;;;42.23;18.47;;;;;;;;;;5048956;28;20052;-59
2023/04/08 01:08:58;;;;;;;28.08;14.15;;;;;;;;;;5049138;28;20318;-59
2023/04/08 01:11:25;;;;;;;35.23;16.80;;;;;;;;;;5048928;28;20053;-59
2023/04/08 01:13:54;;;;;;;29.50;14.00;;;;;;;;;;5049115;28;20707;-59
2023/04/08 01:16:21;;;;;;;36.27;16.20;;;;;;;;;;5048789;28;20295;-58
2023/04/08 01:18:48;;;;;;;31.77;15.60;;;;;;;;;;5048512;28;20385;-59
2023/04/08 01:21:15;;;;;;;31.83;15.20;;;;;;;;;;5048868;28;20286;-59
2023/04/08 01:23:40;;;;;;;36.83;16.23;;;;;;;;;;5049007;28;20638;-59
2023/04/08 01:26:07;;;;;;;30.87;15.33;;;;;;;;;;5048683;28;20295;-59
2023/04/08 01:28:33;;;;;;;36.97;16.43;;;;;;;;;;5048284;28;20049;-59
2023/04/08 01:31:00;;;;;;;35.03;16.87;;;;;;;;;;5048843;28;20635;-59
2023/04/08 01:33:27;;;;;;;42.67;17.87;;;;;;;;;;5048242;28;20318;-59
2023/04/08 01:35:53;;;;;;;38.30;16.50;;;;;;;;;;5048729;28;20293;-60
2023/04/08 01:38:20;;;;;;;34.40;15.30;;;;;;;;;;5048790;28;20291;-59
2023/04/08 01:40:47;;;;;;;35.50;17.67;;;;;;;;;;5048207;28;20311;-59
2023/04/08 01:43:14;;;;;;;32.97;16.60;;;;;;;;;;5048667;28;20288;-58
2023/04/08 01:45:41;;;;;;;37.33;17.10;;;;;;;;;;5048777;28;20290;-59
2023/04/08 01:48:07;;;;;;;39.20;18.23;;;;;;;;;;5046998;28;20314;-59
2023/04/08 01:50:34;;;;;;;37.70;17.63;;;;;;;;;;5051553;28;20291;-59
2023/04/08 01:53:00;;;;;;;44.00;19.27;;;;;;;;;;5052788;28;20988;-59
2023/04/08 01:55:27;;;;;;;32.23;16.77;;;;;;;;;;5052163;28;20785;-59
2023/04/08 01:57:54;;;;;;;38.33;16.90;;;;;;;;;;5052388;28;20312;-58
2023/04/08 02:00:22;;;;;;;47.33;19.37;;;;;;;;;;5052216;28;20353;-59
2023/04/08 02:02:48;;;;;;;39.03;16.67;;;;;;;;;;5052419;28;20539;-59
2023/04/08 02:05:14;;;;;;;40.53;18.23;;;;;;;;;;5051908;28;20287;-59
2023/04/08 02:07:40;;;;;;;39.63;18.27;;;;;;;;;;5052168;28;20355;-59
2023/04/08 02:10:07;;;;;;;45.67;19.17;;;;;;;;;;5052254;28;20337;-59
2023/04/08 02:12:33;;;;;;;39.43;18.27;;;;;;;;;;5052075;28;20883;-59
2023/04/08 02:14:59;;;;;;;46.07;19.13;;;;;;;;;;5052449;28;20375;-59
2023/04/08 02:17:28;;;;;;;47.13;21.03;;;;;;;;;;5051476;28;20770;-59
2023/04/08 02:20:08;;;;;;;51.17;21.07;;;;;;;;;;5052301;28;20287;-59
2023/04/08 02:22:52;;;;;;;42.63;18.83;;;;;;;;;;5052262;28;20673;-59
2023/04/08 02:25:21;;;;;;;47.93;19.50;;;;;;;;;;5052107;28;20323;-59
2023/04/08 02:27:48;;;;;;;42.07;18.67;;;;;;;;;;5051798;28;20316;-58
2023/04/08 02:30:15;;;;;;;44.53;19.73;;;;;;;;;;5051658;28;20315;-59
2023/04/08 02:32:41;;;;;;;48.93;21.47;;;;;;;;;;5051938;28;20302;-59
2023/04/08 02:35:08;;;;;;;51.00;21.57;;;;;;;;;;5051678;28;20847;-59
2023/04/08 02:37:35;;;;;;;52.67;21.73;;;;;;;;;;5051787;28;20292;-59
2023/04/08 02:40:01;;;;;;;50.50;21.90;;;;;;;;;;5051574;28;20295;-59
2023/04/08 02:42:27;;;;;;;52.03;22.60;;;;;;;;;;5051684;28;20322;-59
2023/04/08 02:44:53;;;;;;;41.13;19.20;;;;;;;;;;5051617;28;20314;-59
2023/04/08 02:47:19;;;;;;;51.80;22.23;;;;;;;;;;5051616;28;20677;-59
2023/04/08 02:49:45;;;;;;;54.03;20.87;;;;;;;;;;5051081;28;20404;-58
2023/04/08 02:52:11;;;;;;;54.73;23.27;;;;;;;;;;5051640;28;20296;-59
2023/04/08 02:54:37;;;;;;;57.93;23.33;;;;;;;;;;5051531;28;20276;-59
2023/04/08 02:57:03;;;;;;;47.87;19.40;;;;;;;;;;5051047;28;20294;-59
2023/04/08 02:59:29;;;;;;;53.83;21.37;;;;;;;;;;5051421;28;20140;-59
2023/04/08 03:01:55;;;;;;;63.03;23.00;;;;;;;;;;5050671;28;20366;-59
2023/04/08 03:04:21;;;;;;;53.80;22.90;;;;;;;;;;5051331;28;20088;-58
2023/04/08 03:06:47;;;;;;;54.13;22.37;;;;;;;;;;5051474;28;20283;-59
2023/04/08 03:09:13;;;;;;;52.43;22.47;;;;;;;;;;5051060;28;20487;-58
2023/04/08 03:11:39;;;;;;;56.87;23.73;;;;;;;;;;5051106;28;20044;-59
2023/04/08 03:14:05;;;;;;;56.33;23.60;;;;;;;;;;5050924;28;20284;-59
2023/04/08 03:16:31;;;;;;;54.83;23.53;;;;;;;;;;5051097;28;20371;-59
2023/04/08 03:18:57;;;;;;;55.10;22.37;;;;;;;;;;5051075;28;20041;-59
2023/04/08 03:21:23;;;;;;;49.70;21.77;;;;;;;;;;5050929;28;20053;-59
2023/04/08 03:23:49;;;;;;;51.47;22.00;;;;;;;;;;5051166;28;20334;-59
2023/04/08 03:26:15;;;;;;;62.10;24.73;;;;;;;;;;5050427;28;20327;-59
2023/04/08 03:28:41;;;;;;;54.90;23.77;;;;;;;;;;5050737;28;20347;-59
2023/04/08 03:31:07;;;;;;;63.13;25.73;;;;;;;;;;5050703;28;20315;-59
2023/04/08 03:33:34;;;;;;;62.63;24.77;;;;;;;;;;5050969;28;20491;-59
2023/04/08 03:36:00;;;;;;;71.83;24.73;;;;;;;;;;5050523;28;20092;-59
2023/04/08 03:38:26;;;;;;;68.37;24.80;;;;;;;;;;5050289;28;20322;-59
2023/04/08 03:40:52;;;;;;;64.73;25.20;;;;;;;;;;5050759;28;20052;-59
2023/04/08 03:43:20;;;;;;;59.20;25.37;;;;;;;;;;5050248;28;20287;-59
2023/04/08 03:45:46;;;;;;;78.27;26.73;;;;;;;;;;5049740;28;20128;-59
2023/04/08 03:48:12;;;;;;;62.93;25.53;;;;;;;;;;5049778;28;20742;-59
2023/04/08 03:50:38;;;;;;;62.63;26.97;;;;;;;;;;5050413;28;20334;-59
2023/04/08 03:53:04;;;;;;;58.37;26.20;;;;;;;;;;5050426;28;20415;-59
2023/04/08 03:55:30;;;;;;;58.60;24.77;;;;;;;;;;5050237;28;20287;-59
2023/04/08 03:57:56;;;;;;;61.23;25.63;;;;;;;;;;5050173;28;20295;-59
2023/04/08 04:00:23;;;;;;;62.50;26.57;;;;;;;;;;5049969;28;20280;-59
2023/04/08 04:02:49;;;;;;;56.93;24.87;;;;;;;;;;5049864;28;20291;-59
2023/04/08 04:05:15;;;;;;;62.37;24.83;;;;;;;;;;5049924;28;20303;-59
2023/04/08 04:07:41;;;;;;;50.10;24.23;;;;;;;;;;5050071;28;20313;-59
2023/04/08 04:10:07;;;;;;;60.87;26.63;;;;;;;;;;5050234;28;20304;-59
2023/04/08 04:12:33;;;;;;;59.27;25.80;;;;;;;;;;5049100;28;20292;-59
2023/04/08 04:14:59;;;;;;;58.93;25.67;;;;;;;;;;5049659;28;20287;-59
2023/04/08 04:17:25;;;;;;;62.20;26.07;;;;;;;;;;5049829;28;20292;-59
2023/04/08 04:19:52;;;;;;;59.97;25.43;;;;;;;;;;5050035;28;20283;-59
2023/04/08 04:22:18;;;;;;;67.07;27.67;;;;;;;;;;5049600;28;20328;-59
2023/04/08 04:24:47;;;;;;;73.83;28.43;;;;;;;;;;5049614;28;20283;-59
2023/04/08 04:27:14;;;;;;;78.50;29.57;;;;;;;;;;5049070;28;20426;-59
2023/04/08 04:29:40;;;;;;;61.73;27.47;;;;;;;;;;5049479;28;20326;-59
2023/04/08 04:32:06;;;;;;;55.13;25.37;;;;;;;;;;5049830;28;20288;-60
2023/04/08 04:34:32;;;;;;;74.20;29.03;;;;;;;;;;5049312;28;21143;-60
2023/04/08 04:36:58;;;;;;;68.17;29.23;;;;;;;;;;5049727;28;20048;-60
2023/04/08 04:39:24;;;;;;;58.93;26.27;;;;;;;;;;5049060;28;20299;-60
2023/04/08 04:41:50;;;;;;;68.97;29.07;;;;;;;;;;5049692;28;20098;-60
2023/04/08 04:44:16;;;;;;;73.07;29.17;;;;;;;;;;5049312;28;20860;-59
2023/04/08 04:46:42;;;;;;;83.17;31.13;;;;;;;;;;5049474;28;20280;-60
2023/04/08 04:49:08;;;;;;;68.80;29.60;;;;;;;;;;5049338;28;20419;-60
2023/04/08 04:51:34;;;;;;;74.50;30.63;;;;;;;;;;5048637;28;20800;-60
2023/04/08 04:54:00;;;;;;;61.37;27.40;;;;;;;;;;5049178;28;20294;-60
2023/04/08 04:56:26;;;;;;;75.07;29.80;;;;;;;;;;5068237;28;20278;-60
2023/04/08 04:58:52;;;;;;;67.90;27.97;;;;;;;;;;5069216;28;20290;-60
2023/04/08 05:01:18;;;;;;;63.43;26.53;;;;;;;;;;5069354;28;20570;-60
2023/04/08 05:03:44;;;;;;;71.33;29.47;;;;;;;;;;5068867;28;20792;-60
2023/04/08 05:06:10;;;;;;;79.20;30.40;;;;;;;;;;5068514;28;20290;-60
2023/04/08 05:08:36;;;;;;;80.97;33.80;;;;;;;;;;5068337;28;20329;-60
2023/04/08 05:11:03;;;;;;;89.47;34.03;;;;;;;;;;5068955;28;20044;-60
2023/04/08 05:13:29;;;;;;;83.87;33.53;;;;;;;;;;5068551;28;20372;-60
2023/04/08 05:15:55;;;;;;;90.10;36.70;;;;;;;;;;5068693;28;20298;-60
2023/04/08 05:18:21;;;;;;;88.20;35.27;;;;;;;;;;5068764;28;20286;-60
2023/04/08 05:20:47;;;;;;;96.67;36.03;;;;;;;;;;5068427;28;20413;-59
2023/04/08 05:23:13;;;;;;;90.73;35.80;;;;;;;;;;5068177;28;20477;-59
2023/04/08 05:25:39;;;;;;;121.67;41.07;;;;;;;;;;5068606;28;20282;-60
2023/04/08 05:28:05;;;;;;;104.90;36.87;;;;;;;;;;5068481;28;20315;-59
2023/04/08 05:30:31;;;;;;;98.63;38.33;;;;;;;;;;5068259;28;20645;-60
2023/04/08 05:32:57;;;;;;;90.03;36.93;;;;;;;;;;5068175;28;20344;-59
2023/04/08 05:35:23;;;;;;;102.37;35.97;;;;;;;;;;5068229;28;20290;-59
2023/04/08 05:37:49;;;;;;;122.33;40.67;;;;;;;;;;5068284;28;20287;-59
2023/04/08 05:40:15;;;;;;;111.30;40.43;;;;;;;;;;5068161;28;20509;-59
2023/04/08 05:42:41;;;;;;;133.23;42.67;;;;;;;;;;5068583;28;20291;-59
2023/04/08 05:45:07;;;;;;;120.03;41.43;;;;;;;;;;5068235;28;20381;-59
2023/04/08 05:47:33;;;;;;;120.00;42.17;;;;;;;;;;5067930;28;20556;-59
2023/04/08 05:49:59;;;;;;;106.53;39.27;;;;;;;;;;5068436;28;20278;-60
2023/04/08 05:52:25;;;;;;;109.73;40.43;;;;;;;;;;5068507;28;20278;-60
2023/04/08 05:54:51;;;;;;;122.00;42.13;;;;;;;;;;5068364;28;20048;-59
2023/04/08 05:57:18;;;;;;;101.13;40.13;;;;;;;;;;5068250;28;20658;-59
2023/04/08 05:59:44;;;;;;;116.80;41.27;;;;;;;;;;5068541;28;20149;-59
2023/04/08 06:02:10;;;;;;;108.37;42.93;;;;;;;;;;5067858;28;20299;-59
2023/04/08 06:04:36;;;;;;;122.53;43.93;;;;;;;;;;5068241;28;20287;-59
2023/04/08 06:07:03;;;;;;;131.43;45.47;;;;;;;;;;5068163;28;20560;-60
2023/04/08 06:09:29;;;;;;;117.83;42.23;;;;;;;;;;5068096;28;20572;-59
2023/04/08 06:11:56;;;;;;;112.87;41.23;;;;;;;;;;5068113;28;20780;-59
2023/04/08 06:14:22;;;;;;;132.50;44.17;;;;;;;;;;5066330;28;20125;-59
2023/04/08 06:16:48;;;;;;;110.10;39.17;;;;;;;;;;5068238;28;20047;-59
2023/04/08 06:19:14;;;;;;;192.70;53.87;;;;;;;;;;5067972;28;20037;-60
2023/04/08 06:21:40;;;;;;;93.53;37.60;;;;;;;;;;5068329;28;20055;-59
2023/04/08 06:24:06;;;;;;;191.63;50.17;;;;;;;;;;5068071;28;20033;-60
2023/04/08 06:26:32;;;;;;;110.70;41.00;;;;;;;;;;5067549;28;20044;-59
2023/04/08 06:28:59;;;;;;;103.70;40.13;;;;;;;;;;5068110;28;20437;-60
2023/04/08 06:31:25;;;;;;;104.80;40.93;;;;;;;;;;5067775;28;20053;-60
2023/04/08 06:33:51;;;;;;;136.53;49.00;;;;;;;;;;5067951;28;20045;-60
2023/04/08 06:36:17;;;;;;;107.07;40.73;;;;;;;;;;5069939;28;20048;-60
2023/04/08 06:38:43;;;;;;;99.30;40.23;;;;;;;;;;5071305;28;20037;-60
2023/04/08 06:41:09;;;;;;;112.73;41.70;;;;;;;;;;5070992;28;20564;-59
2023/04/08 06:43:36;;;;;;;113.00;42.77;;;;;;;;;;5071510;28;20048;-59
2023/04/08 06:46:02;;;;;;;98.77;38.90;;;;;;;;;;5071456;28;20048;-59
2023/04/08 06:48:29;;;;;;;92.90;37.83;;;;;;;;;;5070778;28;20101;-59
2023/04/08 06:50:58;;;;;;;89.20;37.00;;;;;;;;;;5071557;28;20080;-59
2023/04/08 06:53:25;;;;;;;103.30;41.00;;;;;;;;;;5070795;28;20072;-59
2023/04/08 06:55:51;;;;;;;94.97;38.73;;;;;;;;;;5071029;28;20529;-59
2023/04/08 06:58:17;;;;;;;98.23;37.83;;;;;;;;;;5071117;28;20415;-59
2023/04/08 07:00:43;;;;;;;72.73;34.53;;;;;;;;;;5070743;28;20471;-59
2023/04/08 07:03:12;;;;;;;93.90;36.67;;;;;;;;;;5069916;28;20045;-59
2023/04/08 07:05:38;;;;;;;81.53;36.27;;;;;;;;;;5071129;28;20098;-59
2023/04/08 07:08:05;;;;;;;85.00;36.57;;;;;;;;;;5070907;28;20083;-59
2023/04/08 07:10:31;;;;;;;83.90;35.43;;;;;;;;;;5070567;28;20037;-59
2023/04/08 07:12:57;;;;;;;84.50;35.33;;;;;;;;;;5070996;28;20518;-59
2023/04/08 07:15:23;;;;;;;67.67;32.63;;;;;;;;;;5070335;28;20044;-59
2023/04/08 07:17:49;;;;;;;78.07;34.60;;;;;;;;;;5070848;28;20041;-59
2023/04/08 07:20:15;;;;;;;74.60;34.50;;;;;;;;;;5070256;28;20045;-59
2023/04/08 07:22:41;;;;;;;61.73;33.67;;;;;;;;;;5071004;28;20066;-59
2023/04/08 07:25:07;;;;;;;67.47;32.87;;;;;;;;;;5070527;28;20049;-59
2023/04/08 07:27:34;;;;;;;64.70;33.17;;;;;;;;;;5070428;28;20468;-59
2023/04/08 07:30:00;;;;;;;67.67;32.97;;;;;;;;;;5070641;28;20052;-59
2023/04/08 07:32:26;;;;;;;58.80;31.53;;;;;;;;;;5069986;28;20072;-59
2023/04/08 07:34:52;;;;;;;59.23;30.17;;;;;;;;;;5070139;28;20577;-59
2023/04/08 07:37:18;;;;;;;49.60;29.27;;;;;;;;;;5070296;28;20063;-59
2023/04/08 07:39:44;;;;;;;50.77;29.83;;;;;;;;;;5070128;28;20506;-59
2023/04/08 07:42:10;;;;;;;53.20;28.53;;;;;;;;;;5070264;28;20044;-59
2023/04/08 07:44:37;;;;;;;46.23;26.23;;;;;;;;;;5069970;28;20123;-59
2023/04/08 07:47:03;;;;;;;44.57;27.30;;;;;;;;;;5070261;28;20789;-59
2023/04/08 07:49:29;;;;;;;43.50;27.83;;;;;;;;;;5069870;28;20044;-59
2023/04/08 07:51:56;;;;;;;40.23;25.97;;;;;;;;;;5070142;28;20124;-59
2023/04/08 07:54:22;;;;;;;44.83;27.40;;;;;;;;;;5069820;28;20080;-59
2023/04/08 07:56:48;;;;;;;36.27;24.93;;;;;;;;;;5069584;28;20036;-59
2023/04/08 07:59:14;;;;;;;36.37;24.97;;;;;;;;;;5069990;28;20044;-59
2023/04/08 08:01:40;;;;;;;34.10;23.03;;;;;;;;;;5069933;28;20040;-59
2023/04/08 08:04:06;;;;;;;37.07;22.53;;;;;;;;;;5069946;28;20682;-59
2023/04/08 08:06:32;;;;;;;28.10;19.60;;;;;;;;;;5069187;28;20047;-59
2023/04/08 08:08:59;;;;;;;27.93;19.77;;;;;;;;;;5069794;28;20097;-59
2023/04/08 08:11:28;;;;;;;30.60;19.33;;;;;;;;;;5069568;28;20127;-59
2023/04/08 08:13:54;;;;;;;28.00;20.00;;;;;;;;;;5069615;28;20441;-59
2023/04/08 08:16:20;;;;;;;27.17;18.97;;;;;;;;;;5069704;28;20163;-59
2023/04/08 08:18:46;;;;;;;27.77;19.20;;;;;;;;;;5069589;28;20055;-59
2023/04/08 08:21:13;;;;;;;27.60;19.40;;;;;;;;;;5069606;28;20395;-59
2023/04/08 08:23:39;;;;;;;24.47;17.63;;;;;;;;;;5069472;28;20138;-59
2023/04/08 08:26:06;;;;;;;26.03;18.53;;;;;;;;;;5069035;28;20044;-59
2023/04/08 08:28:32;;;;;;;20.20;15.83;;;;;;;;;;5068964;28;20052;-60
2023/04/08 08:30:59;;;;;;;19.80;14.13;;;;;;;;;;5069464;28;20044;-59
2023/04/08 08:33:25;;;;;;;18.77;14.27;;;;;;;;;;5069129;28;20086;-59
2023/04/08 08:35:51;;;;;;;18.47;14.53;;;;;;;;;;5069470;28;20422;-59
2023/04/08 08:38:18;;;;;;;18.97;14.93;;;;;;;;;;5069217;28;20040;-59
2023/04/08 08:40:44;;;;;;;22.93;14.73;;;;;;;;;;5069067;28;20057;-59
2023/04/08 08:43:11;;;;;;;19.93;14.20;;;;;;;;;;5069138;28;20525;-59
2023/04/08 08:45:40;;;;;;;19.40;14.00;;;;;;;;;;5069066;28;20141;-59
2023/04/08 08:48:07;;;;;;;17.33;13.23;;;;;;;;;;5068838;28;20439;-59
2023/04/08 08:50:34;;;;;;;18.77;14.40;;;;;;;;;;5069008;28;20063;-59
2023/04/08 08:53:00;;;;;;;20.40;14.53;;;;;;;;;;5068925;28;20051;-59
2023/04/08 08:55:26;;;;;;;17.90;13.43;;;;;;;;;;5068760;28;20050;-59
2023/04/08 08:57:52;;;;;;;15.00;12.37;;;;;;;;;;5068684;28;20418;-60
2023/04/08 09:00:18;;;;;;;17.10;12.83;;;;;;;;;;5069088;28;20045;-59
2023/04/08 09:02:44;;;;;;;17.20;12.40;;;;;;;;;;5068565;28;20055;-59
2023/04/08 09:05:10;;;;;;;16.53;12.50;;;;;;;;;;5068980;28;20044;-59
2023/04/08 09:07:40;;;;;;;15.27;10.70;;;;;;;;;;5068255;28;20041;-59
2023/04/08 09:10:06;;;;;;;14.87;12.10;;;;;;;;;;5068863;28;20498;-59
2023/04/08 09:12:33;;;;;;;13.90;10.93;;;;;;;;;;5068582;28;20048;-59
2023/04/08 09:15:05;;;;;;;13.13;10.37;;;;;;;;;;5068237;28;20647;-59
2023/04/08 09:17:33;;;;;;;13.50;11.43;;;;;;;;;;5068682;28;20048;-59
2023/04/08 09:20:10;;;;;;;12.70;10.80;;;;;;;;;;5068564;28;20074;-59
2023/04/08 09:22:55;;;;;;;16.33;11.17;;;;;;;;;;5068404;28;20040;-59
2023/04/08 09:25:23;;;;;;;16.10;10.90;;;;;;;;;;5068290;28;20126;-59
2023/04/08 09:27:50;;;;;;;13.30;10.97;;;;;;;;;;5068775;28;20083;-59
2023/04/08 09:30:16;;;;;;;13.17;11.17;;;;;;;;;;5068538;28;20070;-59
2023/04/08 09:32:49;;;;;;;15.03;11.83;;;;;;;;;;5068848;28;20048;-59
2023/04/08 09:35:16;;;;;;;;;;;;;;;;;;5069079;28;20124;-59
2023/04/08 09:37:42;;;;;;;10.70;8.93;;;;;;;;;;5068315;28;19955;-59
2023/04/08 09:40:08;;;;;;;13.97;11.33;;;;;;;;;;5068256;28;20044;-59
2023/04/08 09:42:36;;;;;;;12.30;10.70;;;;;;;;;;5068240;28;20049;-59
2023/04/08 09:45:04;;;;;;;13.97;11.13;;;;;;;;;;5068420;28;20059;-59
2023/04/08 09:47:33;;;;;;;12.40;10.93;;;;;;;;;;5068062;28;20052;-59
2023/04/08 09:50:03;;;;;;;12.43;10.43;;;;;;;;;;5067954;28;20051;-59
2023/04/08 09:52:53;;;;;;;13.47;11.53;;;;;;;;;;5068407;28;20818;-59
2023/04/08 09:55:21;;;;;;;14.00;11.17;;;;;;;;;;5068509;28;20045;-59
2023/04/08 09:58:02;;;;;;;15.23;12.23;;;;;;;;;;5068146;28;20142;-59
2023/04/08 10:00:32;;;;;;;13.40;11.47;;;;;;;;;;5067921;28;20057;-59
2023/04/08 10:03:17;;;;;;;13.13;10.90;;;;;;;;;;5068361;28;20079;-59
2023/04/08 10:05:43;;;;;;;12.10;10.53;;;;;;;;;;5068339;28;20414;-59
2023/04/08 10:08:09;;;;;;;11.80;10.00;;;;;;;;;;5067812;28;20055;-60
2023/04/08 10:10:38;;;;;;;11.53;9.93;;;;;;;;;;5069551;28;20052;-59
2023/04/08 10:13:04;;;;;;;14.00;11.17;;;;;;;;;;5072124;28;20044;-59
2023/04/08 10:15:31;;;;;;;15.07;10.90;;;;;;;;;;5071409;28;20109;-59
2023/04/08 10:18:04;;;;;;;12.27;10.63;;;;;;;;;;5072281;28;20047;-60
2023/04/08 10:20:36;;;;;;;11.75;10.23;;;;;;;;;;5071198;28;20074;-60
2023/04/08 10:23:03;;;;;;;10.60;9.35;;;;;;;;;;5071850;28;20414;-59
2023/04/08 10:25:30;;;;;;;10.97;8.90;;;;;;;;;;5071465;28;20153;-60
2023/04/08 10:27:56;;;;;;;12.23;9.77;;;;;;;;;;5071605;28;20060;-60
2023/04/08 10:30:30;;;;;;;10.93;9.50;;;;;;;;;;5071541;28;20102;-59
2023/04/08 10:32:58;;;;;;;10.83;9.67;;;;;;;;;;5071381;28;20383;-59
2023/04/08 10:35:32;;;;;;;10.97;9.60;;;;;;;;;;5071610;28;20048;-59
2023/04/08 10:37:57;;;;;;;;;;;;;;;;;;5065965;28;20521;-60
2023/04/08 10:40:24;;;;;;;9.70;8.27;;;;;;;;;;5050920;28;19921;-60
2023/04/08 10:42:59;;;;;;;9.77;8.77;;;;;;;;;;5051057;28;20167;-59
2023/04/08 10:45:25;;;;;;;10.97;9.57;;;;;;;;;;5051052;28;20418;-60
2023/04/08 10:47:51;;;;;;;11.93;10.00;;;;;;;;;;5053093;28;20049;-60
2023/04/08 10:50:22;;;;;;;10.67;9.20;;;;;;;;;;5066579;28;20052;-59
2023/04/08 10:52:52;;;;;;;11.90;9.97;;;;;;;;;;5051404;28;20049;-59
2023/04/08 10:55:25;;;;;;;12.07;10.03;;;;;;;;;;5054345;28;20118;-60
2023/04/08 10:57:51;;;;;;;10.20;9.13;;;;;;;;;;5071269;28;20094;-59
2023/04/08 11:00:18;;;;;;;12.07;10.50;;;;;;;;;;5071018;28;20044;-60
2023/04/08 11:02:44;;;;;;;11.53;9.87;;;;;;;;;;5067328;28;20040;-60
2023/04/08 11:05:11;;;;;;;10.87;9.77;;;;;;;;;;5070731;28;20461;-59
2023/04/08 11:07:43;;;;;;;10.60;9.37;;;;;;;;;;5071269;28;20102;-60
2023/04/08 11:10:09;;;;;;;9.73;8.52;;;;;;;;;;5070976;28;20060;-60
2023/04/08 11:12:37;;;;;;;9.67;8.23;;;;;;;;;;5069572;28;20049;-59
2023/04/08 11:15:03;;;;;;;11.57;9.13;;;;;;;;;;5070801;28;20852;-60
2023/04/08 11:17:30;;;;;;;9.87;8.83;;;;;;;;;;5070197;28;20053;-60
2023/04/08 11:20:01;;;;;;;10.73;9.17;;;;;;;;;;5070792;28;20053;-60
2023/04/08 11:22:29;;;;;;;10.07;8.93;;;;;;;;;;5069969;28;20564;-61
2023/04/08 11:24:56;;;;;;;10.67;9.20;;;;;;;;;;5070844;28;20388;-59
2023/04/08 11:27:24;;;;;;;9.70;8.70;;;;;;;;;;5069957;28;20141;-59
2023/04/08 11:29:51;;;;;;;10.40;9.27;;;;;;;;;;5070604;28;20044;-60
2023/04/08 11:32:17;;;;;;;11.23;9.10;;;;;;;;;;5070548;28;20045;-60
2023/04/08 11:34:43;;;;;;;11.93;9.37;;;;;;;;;;5070537;28;20055;-60
2023/04/08 11:37:09;;;;;;;9.70;8.70;;;;;;;;;;5070413;28;20058;-61
2023/04/08 11:39:41;;;;;;;10.63;9.53;;;;;;;;;;5070255;28;20048;-60
2023/04/08 11:42:07;;;;;;;11.50;10.40;;;;;;;;;;5070166;28;20110;-61
2023/04/08 11:44:33;;;;;;;11.67;10.47;;;;;;;;;;5070195;28;20045;-60
2023/04/08 11:47:01;;;;;;;12.17;9.87;;;;;;;;;;5070382;28;20416;-61
2023/04/08 11:49:27;;;;;;;11.33;9.83;;;;;;;;;;5069446;28;20048;-60
2023/04/08 11:52:02;;;;;;;12.30;10.13;;;;;;;;;;5070039;28;20045;-60
2023/04/08 11:54:32;;;;;;;10.13;8.63;;;;;;;;;;5069784;28;20524;-61
2023/04/08 11:56:58;;;;;;;9.67;8.43;;;;;;;;;;5070392;28;20101;-61
2023/04/08 11:59:25;;;;;;;10.90;9.80;;;;;;;;;;5069883;28;20098;-60
2023/04/08 12:01:52;;;;;;;9.90;8.83;;;;;;;;;;5070142;28;20056;-60
2023/04/08 12:04:18;;;;;;;10.23;9.13;;;;;;;;;;5069872;28;20056;-61
2023/04/08 12:06:45;;;;;;;8.80;7.87;;;;;;;;;;5069519;28;20056;-61
2023/04/08 12:09:14;;;;;;;8.90;7.70;;;;;;;;;;5069529;28;20056;-61
2023/04/08 12:11:40;;;;;;;8.80;7.83;;;;;;;;;;5069966;28;20052;-61
2023/04/08 12:14:06;;;;;;;9.03;8.10;;;;;;;;;;5069538;28;20040;-61
2023/04/08 12:16:32;;;;;;;9.17;7.77;;;;;;;;;;5069825;28;20045;-61
2023/04/08 12:18:59;;;;;;;11.40;8.27;;;;;;;;;;5070022;28;20450;-60
2023/04/08 12:21:26;;;;;;;9.20;7.83;;;;;;;;;;5068805;28;20051;-60
2023/04/08 12:23:52;;;;;;;8.63;7.73;;;;;;;;;;5069689;28;20050;-61
2023/04/08 12:26:18;;;;;;;9.53;8.27;;;;;;;;;;5069172;28;20049;-61
2023/04/08 12:28:45;;;;;;;9.87;8.07;;;;;;;;;;5068966;28;20068;-61
2023/04/08 12:31:11;;;;;;;8.20;7.30;;;;;;;;;;5069519;28;20048;-59
2023/04/08 12:33:37;;;;;;;9.60;8.07;;;;;;;;;;5068397;28;20063;-59
2023/04/08 12:36:03;;;;;;;10.80;8.20;;;;;;;;;;5069340;28;20110;-59
2023/04/08 12:38:29;;;;;;;7.70;6.73;;;;;;;;;;5069084;28;20076;-59
2023/04/08 12:40:55;;;;;;;9.43;7.03;;;;;;;;;;5069381;28;20048;-60
2023/04/08 12:43:22;;;;;;;9.10;7.50;;;;;;;;;;5068817;28;20474;-59
2023/04/08 12:45:48;;;;;;;8.90;7.40;;;;;;;;;;5069200;28;20040;-60
2023/04/08 12:48:14;;;;;;;9.30;8.00;;;;;;;;;;5068658;28;20044;-60
2023/04/08 12:50:40;;;;;;;9.30;8.30;;;;;;;;;;5068852;28;20052;-60
2023/04/08 12:53:07;;;;;;;8.40;7.37;;;;;;;;;;5068901;28;20051;-59
2023/04/08 12:55:33;;;;;;;8.17;6.80;;;;;;;;;;5069002;28;20044;-59
2023/04/08 12:57:59;;;;;;;10.00;8.83;;;;;;;;;;5068918;28;20090;-60
2023/04/08 13:00:26;;;;;;;8.80;7.80;;;;;;;;;;5068585;28;20040;-60
2023/04/08 13:02:52;;;;;;;11.37;9.00;;;;;;;;;;5068923;28;20109;-60
2023/04/08 13:05:18;;;;;;;9.50;8.50;;;;;;;;;;5069147;28;20048;-60
2023/04/08 13:07:46;;;;;;;9.43;8.37;;;;;;;;;;5068643;28;20044;-60
2023/04/08 13:10:12;;;;;;;10.00;8.73;;;;;;;;;;5068582;28;20063;-60
2023/04/08 13:12:39;;;;;;;10.90;9.23;;;;;;;;;;5068698;28;20045;-60
2023/04/08 13:15:05;;;;;;;11.13;8.33;;;;;;;;;;5068637;28;20452;-60
2023/04/08 13:17:32;;;;;;;11.33;8.57;;;;;;;;;;5068529;28;20044;-60
2023/04/08 13:19:58;;;;;;;10.07;8.70;;;;;;;;;;5068523;28;20044;-60
2023/04/08 13:22:24;;;;;;;10.73;8.90;;;;;;;;;;5068602;28;20098;-60
2023/04/08 13:24:50;;;;;;;10.20;8.90;;;;;;;;;;5068333;28;20044;-60
2023/04/08 13:27:17;;;;;;;11.37;9.13;;;;;;;;;;5068379;28;20499;-60
2023/04/08 13:29:43;;;;;;;12.93;9.53;;;;;;;;;;5068418;28;20056;-60
2023/04/08 13:32:09;;;;;;;12.27;9.37;;;;;;;;;;5068611;28;20094;-60
2023/04/08 13:34:35;;;;;;;10.83;8.73;;;;;;;;;;5068338;28;20040;-60
2023/04/08 13:37:02;;;;;;;12.60;9.30;;;;;;;;;;5068260;28;20537;-60
2023/04/08 13:39:28;;;;;;;10.23;8.23;;;;;;;;;;5068616;28;20041;-61
2023/04/08 13:41:54;;;;;;;15.00;9.67;;;;;;;;;;5068629;28;20051;-60
2023/04/08 13:44:19;;;;;;;11.77;9.10;;;;;;;;;;5069328;28;20134;-60
2023/04/08 13:46:45;;;;;;;14.37;9.37;;;;;;;;;;5072333;28;20051;-59
2023/04/08 13:49:12;;;;;;;12.27;9.43;;;;;;;;;;5072229;28;20071;-60
2023/04/08 13:51:38;;;;;;;14.47;10.83;;;;;;;;;;5072404;28;20170;-60
2023/04/08 13:54:04;;;;;;;13.10;9.93;;;;;;;;;;5072392;28;20120;-60
2023/04/08 13:56:30;;;;;;;16.43;10.07;;;;;;;;;;5072471;28;20044;-60
2023/04/08 13:58:56;;;;;;;13.57;9.83;;;;;;;;;;5071963;28;20127;-60
2023/04/08 14:01:22;;;;;;;15.97;11.00;;;;;;;;;;5072322;28;20044;-60
2023/04/08 14:03:48;;;;;;;18.47;12.10;;;;;;;;;;5072225;28;20049;-60
2023/04/08 14:06:15;;;;;;;17.00;12.13;;;;;;;;;;5072407;28;20501;-60
2023/04/08 14:08:41;;;;;;;17.43;12.40;;;;;;;;;;5072187;28;20048;-60
2023/04/08 14:11:07;;;;;;;20.30;13.30;;;;;;;;;;5071762;28;20052;-60
2023/04/08 14:13:33;;;;;;;17.60;12.97;;;;;;;;;;5072338;28;20059;-60
2023/04/08 14:16:01;;;;;;;19.50;13.37;;;;;;;;;;5071688;28;20423;-60
2023/04/08 14:18:28;;;;;;;17.43;12.33;;;;;;;;;;5071960;28;20048;-60
2023/04/08 14:20:55;;;;;;;16.80;12.20;;;;;;;;;;5071553;28;20514;-60